createdAt,value
2017-10-17T00:01:26.503Z,92.55
2017-10-17T00:03:54.917Z,93.31
2017-10-17T00:06:23.288Z,93.68
2017-10-17T00:08:51.729Z,93.37
2017-10-17T00:11:20.112Z,93.48
2017-10-17T00:13:48.499Z,92.77
2017-10-17T00:16:17.005Z,93.04
2017-10-17T00:18:46.210Z,93.27
2017-10-17T00:21:14.581Z,93.48
2017-10-17T00:23:43.705Z,92.84
2017-10-17T00:26:12.140Z,92.48
2017-10-17T00:28:40.565Z,94.04
2017-10-17T00:31:08.963Z,94.24
2017-10-17T00:33:37.347Z,93.68
2017-10-17T00:36:10.261Z,92.38
2017-10-17T00:41:43.747Z,91.99
2017-10-17T00:44:12.277Z,91.61
2017-10-17T00:46:41.584Z,91.03
2017-10-17T00:49:12.558Z,90.87
2017-10-17T00:51:40.946Z,91.43
2017-10-17T00:54:09.349Z,92.35
2017-10-17T00:56:38.512Z,92.15
2017-10-17T00:59:07.053Z,92.52
2017-10-17T01:01:36.341Z,92.28
2017-10-17T01:04:05.495Z,92.15
2017-10-17T01:06:33.882Z,91.99
2017-10-17T01:09:02.344Z,92.00
2017-10-17T01:11:30.757Z,91.72
2017-10-17T01:13:59.276Z,91.58
2017-10-17T01:16:27.714Z,92.26
2017-10-17T01:18:56.103Z,92.41
2017-10-17T01:21:24.479Z,92.57
2017-10-17T01:23:59.457Z,91.87
2017-10-17T01:26:27.933Z,91.32
2017-10-17T01:28:59.929Z,91.25
2017-10-17T01:31:28.372Z,90.99
2017-10-17T01:33:56.869Z,91.54
2017-10-17T01:36:25.394Z,90.79
2017-10-17T01:38:53.789Z,90.63
2017-10-17T01:41:22.177Z,91.14
2017-10-17T01:43:56.120Z,91.15
2017-10-17T01:46:24.515Z,92.60
2017-10-17T01:52:15.244Z,92.29
2017-10-17T01:55:00.230Z,93.16
2017-10-17T01:57:34.102Z,92.50
2017-10-17T02:00:05.433Z,93.46
2017-10-17T02:02:41.940Z,92.54
2017-10-17T02:05:10.312Z,93.11
2017-10-17T02:07:44.854Z,93.55
2017-10-17T02:10:24.967Z,93.28
2017-10-17T02:12:53.362Z,92.46
2017-10-17T02:15:21.734Z,92.39
2017-10-17T02:18:00.172Z,92.12
2017-10-17T02:20:28.672Z,92.11
2017-10-17T02:22:57.047Z,91.96
2017-10-17T02:25:40.309Z,91.86
2017-10-17T02:28:20.257Z,92.09
2017-10-17T02:30:51.369Z,92.00
2017-10-17T02:33:22.213Z,92.25
2017-10-17T02:35:51.412Z,93.07
2017-10-17T02:38:19.853Z,93.84
2017-10-17T02:40:49.152Z,93.46
2017-10-17T02:43:29.332Z,92.95
2017-10-17T02:45:57.863Z,92.69
2017-10-17T02:48:42.465Z,92.66
2017-10-17T02:51:10.831Z,92.27
2017-10-17T02:53:39.365Z,91.66
2017-10-17T02:56:07.755Z,91.62
2017-10-17T02:58:36.157Z,91.68
2017-10-17T03:01:31.229Z,91.14
2017-10-17T03:03:59.606Z,91.64
2017-10-17T03:06:27.998Z,91.77
2017-10-17T03:08:56.501Z,93.88
2017-10-17T03:11:25.037Z,93.88
2017-10-17T03:13:58.240Z,94.85
2017-10-17T03:16:26.762Z,94.56
2017-10-17T03:18:55.133Z,93.60
2017-10-17T03:21:26.381Z,93.39
2017-10-17T03:23:58.276Z,94.04
2017-10-17T03:26:26.815Z,93.55
2017-10-17T03:28:55.191Z,93.42
2017-10-17T03:31:23.605Z,93.54
2017-10-17T03:33:55.504Z,92.74
2017-10-17T03:36:24.665Z,92.28
2017-10-17T03:38:54.982Z,93.08
2017-10-17T03:41:39.997Z,92.13
2017-10-17T03:44:22.954Z,92.17
2017-10-17T03:46:51.441Z,91.59
2017-10-17T03:49:28.657Z,91.54
2017-10-17T03:51:57.205Z,93.19
2017-10-17T03:54:32.314Z,93.54
2017-10-17T03:57:00.693Z,93.41
2017-10-17T03:59:46.631Z,94.09
2017-10-17T04:02:15.041Z,93.40
2017-10-17T04:04:53.130Z,93.26
2017-10-17T04:07:33.377Z,93.08
2017-10-17T04:10:10.049Z,92.98
2017-10-17T04:12:38.425Z,92.63
2017-10-17T04:15:09.852Z,92.51
2017-10-17T04:17:40.178Z,92.17
2017-10-17T04:20:22.877Z,92.69
2017-10-17T04:23:01.487Z,93.57
2017-10-17T04:25:37.336Z,93.29
2017-10-17T04:28:41.472Z,92.66
2017-10-17T04:31:18.317Z,92.36
2017-10-17T04:34:02.994Z,93.43
2017-10-17T04:36:49.955Z,93.86
2017-10-17T04:39:18.414Z,93.77
2017-10-17T04:45:23.394Z,94.67
2017-10-17T04:51:49.102Z,94.94
2017-10-17T04:54:26.808Z,94.62
2017-10-17T04:57:01.742Z,94.79
2017-10-17T05:03:04.652Z,93.63
2017-10-17T05:05:59.630Z,93.93
2017-10-17T05:11:34.942Z,94.29
2017-10-17T05:14:29.672Z,93.62
2017-10-17T05:17:09.911Z,93.54
2017-10-17T05:19:51.007Z,93.49
2017-10-17T05:22:22.088Z,93.76
2017-10-17T05:24:54.866Z,93.35
2017-10-17T05:27:43.065Z,93.97
2017-10-17T05:30:49.925Z,93.06
2017-10-17T05:36:47.993Z,92.87
2017-10-17T05:39:16.361Z,93.12
2017-10-17T05:41:44.882Z,93.51
2017-10-17T05:44:21.539Z,94.30
2017-10-17T05:46:49.924Z,93.83
2017-10-17T05:49:25.081Z,93.57
2017-10-17T05:51:54.230Z,94.21
2017-10-17T05:54:22.658Z,94.08
2017-10-17T05:56:52.482Z,93.59
2017-10-17T05:59:20.832Z,93.84
2017-10-17T06:01:49.376Z,93.48
2017-10-17T06:04:17.725Z,93.77
2017-10-17T06:06:46.096Z,92.56
2017-10-17T06:09:14.449Z,92.36
2017-10-17T06:11:42.818Z,92.48
2017-10-17T06:14:11.207Z,93.38
2017-10-17T06:16:40.094Z,93.25
2017-10-17T06:19:08.476Z,92.93
2017-10-17T06:21:36.855Z,92.31
2017-10-17T06:24:06.007Z,92.42
2017-10-17T06:26:34.421Z,93.45
2017-10-17T06:29:02.785Z,92.68
2017-10-17T06:31:31.152Z,92.18
2017-10-17T06:33:59.521Z,92.61
2017-10-17T06:36:27.900Z,94.00
2017-10-17T06:38:56.278Z,93.87
2017-10-17T06:41:24.828Z,93.52
2017-10-17T06:43:53.967Z,93.68
2017-10-17T06:46:22.337Z,93.25
2017-10-17T06:48:50.746Z,93.87
2017-10-17T06:51:19.124Z,94.13
2017-10-17T06:53:47.499Z,94.15
2017-10-17T06:56:15.868Z,94.65
2017-10-17T06:58:44.237Z,94.22
2017-10-17T07:01:12.618Z,93.86
2017-10-17T07:03:40.990Z,93.30
2017-10-17T07:06:09.380Z,92.88
2017-10-17T07:08:37.857Z,91.99
2017-10-17T07:11:06.229Z,92.02
2017-10-17T07:13:34.609Z,92.27
2017-10-17T07:16:02.997Z,91.78
2017-10-17T07:18:31.373Z,91.11
2017-10-17T07:20:59.767Z,90.88
2017-10-17T07:23:28.150Z,92.17
2017-10-17T07:25:56.516Z,91.71
2017-10-17T07:28:24.894Z,91.44
2017-10-17T07:30:53.278Z,91.12
2017-10-17T07:33:21.801Z,90.15
2017-10-17T07:35:50.206Z,90.75
2017-10-17T07:38:18.573Z,92.49
2017-10-17T07:40:47.753Z,91.64
2017-10-17T07:43:16.133Z,91.04
2017-10-17T07:45:44.509Z,90.77
2017-10-17T07:48:12.882Z,90.51
2017-10-17T07:50:41.272Z,90.33
2017-10-17T07:53:09.702Z,91.15
2017-10-17T07:55:38.076Z,89.57
2017-10-17T07:58:06.459Z,89.42
2017-10-17T08:00:34.833Z,88.06
2017-10-17T08:03:03.207Z,91.03
2017-10-17T08:05:31.577Z,90.58
2017-10-17T08:07:59.975Z,90.51
2017-10-17T08:10:28.347Z,93.03
2017-10-17T08:12:56.725Z,92.03
2017-10-17T08:15:25.128Z,91.68
2017-10-17T08:17:53.501Z,91.23
2017-10-17T08:20:21.876Z,90.58
2017-10-17T08:22:50.276Z,90.08
2017-10-17T08:25:18.644Z,89.78
2017-10-17T08:27:47.016Z,89.23
2017-10-17T08:30:15.594Z,88.84
2017-10-17T08:32:44.057Z,88.76
2017-10-17T08:35:12.485Z,88.47
2017-10-17T08:37:40.867Z,89.77
2017-10-17T08:40:09.656Z,89.68
2017-10-17T08:42:38.788Z,89.61
2017-10-17T08:45:07.164Z,89.80
2017-10-17T08:47:35.553Z,88.91
2017-10-17T08:50:03.931Z,88.49
2017-10-17T08:52:32.308Z,88.64
2017-10-17T08:55:00.743Z,88.00
2017-10-17T08:57:29.125Z,88.06
2017-10-17T08:59:57.502Z,88.30
2017-10-17T09:02:26.699Z,88.07
2017-10-17T09:04:55.099Z,87.36
2017-10-17T09:07:23.466Z,87.82
2017-10-17T09:09:51.841Z,88.21
2017-10-17T09:12:20.229Z,88.99
2017-10-17T09:14:48.625Z,89.86
2017-10-17T09:17:17.034Z,88.92
2017-10-17T09:19:45.481Z,89.54
2017-10-17T09:22:13.865Z,88.31
2017-10-17T09:24:42.230Z,87.65
2017-10-17T09:27:10.605Z,88.47
2017-10-17T09:29:38.980Z,87.00
2017-10-17T09:32:07.406Z,87.63
2017-10-17T09:34:35.785Z,88.11
2017-10-17T09:37:04.149Z,88.13
2017-10-17T09:39:32.530Z,88.09
2017-10-17T09:42:00.908Z,85.65
2017-10-17T09:44:29.283Z,86.89
2017-10-17T09:46:57.668Z,87.77
2017-10-17T09:49:26.034Z,88.48
2017-10-17T09:51:54.419Z,87.69
2017-10-17T09:54:22.785Z,87.45
2017-10-17T09:56:51.164Z,85.87
2017-10-17T09:59:19.521Z,86.23
2017-10-17T10:01:48.036Z,84.67
2017-10-17T10:04:16.886Z,84.67
2017-10-17T10:06:45.278Z,85.58
2017-10-17T10:09:13.790Z,84.52
2017-10-17T10:11:42.201Z,85.10
2017-10-17T10:14:10.645Z,82.95
2017-10-17T10:16:39.199Z,84.43
2017-10-17T10:19:07.705Z,83.08
2017-10-17T10:21:36.384Z,81.39
2017-10-17T10:24:05.378Z,82.78
2017-10-17T10:26:33.766Z,83.04
2017-10-17T10:29:02.172Z,82.23
2017-10-17T10:31:30.583Z,81.56
2017-10-17T10:33:59.729Z,81.39
2017-10-17T10:36:28.144Z,81.21
2017-10-17T10:38:56.546Z,79.80
2017-10-17T10:41:24.914Z,79.33
2017-10-17T10:43:53.295Z,79.30
2017-10-17T10:46:21.667Z,78.93
2017-10-17T10:48:50.037Z,77.70
2017-10-17T10:51:18.406Z,77.18
2017-10-17T10:53:46.777Z,76.86
2017-10-17T10:56:15.141Z,76.61
2017-10-17T10:58:43.507Z,73.60
2017-10-17T11:01:11.896Z,74.49
2017-10-17T11:03:40.281Z,74.41
2017-10-17T11:06:08.661Z,74.25
2017-10-17T11:08:37.044Z,74.39
2017-10-17T11:11:05.417Z,74.58
2017-10-17T11:13:33.795Z,73.95
2017-10-17T11:16:02.229Z,74.40
2017-10-17T11:18:30.592Z,73.06
2017-10-17T11:20:59.025Z,72.38
2017-10-17T11:23:27.390Z,72.34
2017-10-17T11:25:55.759Z,71.91
2017-10-17T11:28:24.117Z,70.57
2017-10-17T11:30:52.558Z,69.67
2017-10-17T11:33:21.012Z,70.50
2017-10-17T11:35:49.509Z,70.25
2017-10-17T11:38:17.869Z,69.45
2017-10-17T11:41:04.548Z,69.31
2017-10-17T11:43:53.336Z,69.16
2017-10-17T11:46:21.726Z,68.34
2017-10-17T11:48:50.215Z,68.01
2017-10-17T11:51:18.728Z,69.60
2017-10-17T11:53:47.878Z,67.37
2017-10-17T11:56:16.251Z,66.29
2017-10-17T11:58:44.621Z,65.85
2017-10-17T12:01:12.981Z,66.78
2017-10-17T12:03:41.345Z,65.03
2017-10-17T12:06:09.726Z,65.03
2017-10-17T12:08:38.106Z,65.06
2017-10-17T12:11:06.476Z,64.00
2017-10-17T12:13:34.858Z,64.30
2017-10-17T12:16:03.221Z,61.56
2017-10-17T12:18:31.610Z,63.68
2017-10-17T12:21:00.000Z,62.64
2017-10-17T12:23:28.372Z,62.51
2017-10-17T12:25:57.538Z,62.90
2017-10-17T12:28:25.910Z,62.21
2017-10-17T12:30:54.569Z,64.31
2017-10-17T12:33:24.712Z,64.17
2017-10-17T12:35:53.095Z,63.44
2017-10-17T12:38:21.477Z,62.96
2017-10-17T12:40:49.875Z,63.27
2017-10-17T12:43:18.245Z,62.37
2017-10-17T12:45:46.624Z,63.88
2017-10-17T12:48:14.994Z,63.50
2017-10-17T12:50:43.373Z,63.15
2017-10-17T12:53:11.740Z,61.37
2017-10-17T12:55:40.095Z,62.62
2017-10-17T12:58:08.495Z,62.28
2017-10-17T13:00:36.868Z,62.27
2017-10-17T13:03:05.254Z,60.90
2017-10-17T13:05:33.649Z,61.46
2017-10-17T13:08:02.046Z,60.15
2017-10-17T13:10:30.442Z,61.82
2017-10-17T13:12:58.815Z,61.46
2017-10-17T13:15:27.194Z,61.31
2017-10-17T13:17:55.570Z,60.31
2017-10-17T13:20:23.948Z,60.96
2017-10-17T13:22:52.322Z,61.17
2017-10-17T13:25:21.473Z,60.70
2017-10-17T13:27:49.849Z,60.20
2017-10-17T13:30:18.224Z,60.86
2017-10-17T13:32:46.598Z,60.78
2017-10-17T13:35:14.975Z,62.08
2017-10-17T13:37:43.401Z,61.18
2017-10-17T13:40:12.549Z,60.93
2017-10-17T13:42:40.923Z,61.24
2017-10-17T13:45:09.291Z,60.63
2017-10-17T13:47:37.654Z,61.22
2017-10-17T13:50:06.026Z,61.98
2017-10-17T13:52:34.385Z,62.72
2017-10-17T13:55:02.768Z,63.15
2017-10-17T13:57:31.173Z,62.43
2017-10-17T13:59:59.544Z,63.88
2017-10-17T14:02:27.930Z,63.44
2017-10-17T14:04:56.333Z,62.93
2017-10-17T14:07:24.705Z,62.76
2017-10-17T14:09:53.090Z,64.39
2017-10-17T14:12:21.466Z,65.30
2017-10-17T14:14:50.864Z,64.56
2017-10-17T14:17:19.234Z,64.40
2017-10-17T14:19:47.620Z,62.94
2017-10-17T14:22:16.013Z,63.07
2017-10-17T14:24:44.385Z,62.55
2017-10-17T14:27:12.757Z,62.12
2017-10-17T14:29:41.113Z,62.31
2017-10-17T14:32:09.484Z,62.32
2017-10-17T14:34:37.863Z,62.33
2017-10-17T14:37:06.240Z,62.44
2017-10-17T14:39:34.622Z,62.18
2017-10-17T14:42:02.994Z,61.94
2017-10-17T14:44:32.135Z,61.69
2017-10-17T14:47:00.530Z,61.35
2017-10-17T14:49:28.912Z,61.55
2017-10-17T14:51:57.299Z,61.90
2017-10-17T14:54:25.684Z,60.96
2017-10-17T14:56:54.061Z,60.59
2017-10-17T14:59:22.440Z,59.68
2017-10-17T15:01:50.848Z,59.88
2017-10-17T15:04:19.221Z,59.94
2017-10-17T15:06:47.624Z,59.72
2017-10-17T15:09:16.008Z,61.52
2017-10-17T15:11:44.405Z,62.69
2017-10-17T15:14:12.780Z,61.99
2017-10-17T15:16:41.551Z,62.91
2017-10-17T15:19:09.918Z,62.94
2017-10-17T15:21:38.301Z,63.08
2017-10-17T15:24:06.669Z,62.88
2017-10-17T15:26:35.088Z,63.06
2017-10-17T15:29:03.490Z,63.54
2017-10-17T15:31:31.861Z,63.62
2017-10-17T15:34:00.237Z,64.09
2017-10-17T15:36:28.622Z,65.38
2017-10-17T15:38:57.029Z,66.49
2017-10-17T15:41:26.170Z,67.35
2017-10-17T15:43:54.544Z,67.74
2017-10-17T15:46:22.919Z,68.22
2017-10-17T15:48:51.297Z,68.46
2017-10-17T15:51:19.685Z,68.94
2017-10-17T15:53:48.074Z,69.24
2017-10-17T15:56:16.445Z,69.75
2017-10-17T15:58:44.820Z,70.19
2017-10-17T16:01:13.936Z,70.91
2017-10-17T16:03:42.309Z,71.42
2017-10-17T16:06:10.673Z,71.80
2017-10-17T16:08:39.037Z,72.36
2017-10-17T16:11:07.430Z,72.90
2017-10-17T16:13:35.810Z,74.26
2017-10-17T16:16:04.181Z,77.86
2017-10-17T16:18:32.570Z,77.12
2017-10-17T16:21:00.937Z,76.81
2017-10-17T16:23:29.316Z,79.93
2017-10-17T16:25:57.686Z,79.12
2017-10-17T16:28:26.105Z,78.52
2017-10-17T16:30:54.476Z,79.56
2017-10-17T16:33:22.845Z,82.46
2017-10-17T16:35:51.220Z,84.69
2017-10-17T16:38:19.656Z,83.91
2017-10-17T16:40:48.049Z,82.66
2017-10-17T16:43:16.414Z,82.73
2017-10-17T16:45:44.787Z,81.74
2017-10-17T16:48:13.170Z,82.83
2017-10-17T16:50:42.317Z,82.89
2017-10-17T16:53:10.685Z,81.82
2017-10-17T16:55:39.053Z,81.29
2017-10-17T16:58:07.429Z,81.17
2017-10-17T17:00:35.826Z,81.80
2017-10-17T17:03:04.189Z,82.53
2017-10-17T17:05:32.563Z,83.85
2017-10-17T17:08:00.944Z,84.07
2017-10-17T17:10:29.308Z,83.21
2017-10-17T17:12:57.679Z,82.21
2017-10-17T17:15:26.045Z,83.20
2017-10-17T17:17:54.513Z,84.68
2017-10-17T17:20:23.685Z,88.52
2017-10-17T17:22:52.058Z,87.39
2017-10-17T17:25:20.425Z,87.58
2017-10-17T17:27:48.797Z,87.90
2017-10-17T17:30:17.177Z,85.45
2017-10-17T17:32:45.548Z,84.84
2017-10-17T17:35:13.905Z,85.22
2017-10-17T17:37:42.866Z,84.40
2017-10-17T17:40:11.242Z,84.08
2017-10-17T17:42:39.644Z,83.54
2017-10-17T17:45:08.016Z,83.23
2017-10-17T17:47:37.159Z,84.14
2017-10-17T17:50:05.533Z,83.08
2017-10-17T17:52:34.053Z,82.76
2017-10-17T17:55:02.821Z,82.80
2017-10-17T17:57:32.008Z,82.60
2017-10-17T18:00:00.398Z,82.71
2017-10-17T18:02:29.519Z,83.49
2017-10-17T18:04:57.990Z,84.44
2017-10-17T18:07:26.369Z,92.03
2017-10-17T18:09:54.780Z,90.64
2017-10-17T18:12:23.917Z,90.74
2017-10-17T18:14:52.303Z,88.59
2017-10-17T18:17:20.761Z,87.42
2017-10-17T18:19:49.164Z,86.97
2017-10-17T18:22:17.537Z,86.58
2017-10-17T18:24:45.912Z,86.54
2017-10-17T18:27:14.303Z,86.21
2017-10-17T18:29:42.722Z,87.48
2017-10-17T18:32:11.866Z,86.41
2017-10-17T18:34:40.260Z,86.15
2017-10-17T18:37:08.665Z,88.61
2017-10-17T18:39:39.359Z,90.58
2017-10-17T18:42:07.792Z,89.71
2017-10-17T18:44:36.175Z,89.34
2017-10-17T18:47:07.780Z,88.36
2017-10-17T18:49:36.957Z,87.25
2017-10-17T18:52:05.377Z,86.74
2017-10-17T18:54:33.753Z,87.06
2017-10-17T18:57:02.133Z,89.29
2017-10-17T18:59:30.513Z,87.75
2017-10-17T19:01:58.902Z,87.10
2017-10-17T19:04:28.048Z,86.32
2017-10-17T19:06:57.726Z,87.29
2017-10-17T19:09:26.117Z,87.09
2017-10-17T19:11:54.489Z,87.19
2017-10-17T19:14:22.861Z,90.36
2017-10-17T19:16:51.238Z,92.45
2017-10-17T19:19:19.612Z,93.60
2017-10-17T19:21:48.002Z,92.11
2017-10-17T19:24:16.373Z,90.35
2017-10-17T19:26:44.753Z,89.30
2017-10-17T19:29:13.913Z,88.48
2017-10-17T19:31:42.283Z,88.45
2017-10-17T19:34:10.693Z,87.68
2017-10-17T19:36:39.837Z,87.27
2017-10-17T19:39:08.273Z,86.32
2017-10-17T19:41:36.657Z,87.21
2017-10-17T19:44:05.053Z,86.74
2017-10-17T19:46:33.458Z,86.31
2017-10-17T19:49:01.838Z,85.96
2017-10-17T19:51:30.238Z,85.87
2017-10-17T19:53:59.888Z,88.49
2017-10-17T19:56:28.254Z,87.11
2017-10-17T19:58:57.394Z,86.97
2017-10-17T20:01:25.762Z,87.41
2017-10-17T20:03:54.126Z,87.42
2017-10-17T20:06:22.501Z,87.17
2017-10-17T20:08:50.876Z,87.13
2017-10-17T20:11:20.086Z,87.15
2017-10-17T20:13:48.466Z,86.85
2017-10-17T20:16:16.863Z,86.74
2017-10-17T20:18:45.245Z,86.60
2017-10-17T20:21:13.641Z,86.52
2017-10-17T20:23:42.005Z,87.32
2017-10-17T20:26:10.400Z,88.30
2017-10-17T20:28:38.791Z,89.73
2017-10-17T20:31:08.121Z,89.98
2017-10-17T20:33:36.494Z,90.15
2017-10-17T20:36:04.878Z,89.76
2017-10-17T20:38:33.257Z,90.29
2017-10-17T20:41:20.617Z,89.92
2017-10-17T20:43:49.445Z,89.66
2017-10-17T20:46:17.820Z,90.15
2017-10-17T20:48:46.230Z,90.30
2017-10-17T20:51:14.944Z,91.48
2017-10-17T20:53:45.702Z,92.03
2017-10-17T20:56:14.706Z,91.26
2017-10-17T20:58:43.106Z,90.90
2017-10-17T21:01:11.481Z,90.87
2017-10-17T21:03:39.851Z,90.96
2017-10-17T21:06:08.328Z,91.64
2017-10-17T21:08:36.718Z,91.64
2017-10-17T21:11:05.873Z,91.59
2017-10-17T21:13:34.245Z,91.76
2017-10-17T21:16:02.661Z,92.05
2017-10-17T21:18:31.030Z,91.95
2017-10-17T21:20:59.417Z,91.81
2017-10-17T21:23:27.812Z,91.92
2017-10-17T21:25:56.197Z,92.06
2017-10-17T21:28:24.579Z,92.20
2017-10-17T21:30:53.720Z,91.63
2017-10-17T21:33:22.093Z,91.26
2017-10-17T21:35:50.474Z,91.08
2017-10-17T21:38:18.846Z,90.83
2017-10-17T21:40:47.230Z,90.77
2017-10-17T21:43:15.623Z,90.56
2017-10-17T21:45:43.990Z,90.54
2017-10-17T21:48:12.373Z,89.94
2017-10-17T21:50:40.749Z,91.01
2017-10-17T21:53:09.126Z,91.11
2017-10-17T21:55:37.495Z,90.66
2017-10-17T21:58:06.132Z,90.19
2017-10-17T22:01:07.917Z,89.75
2017-10-17T22:03:36.290Z,89.33
2017-10-17T22:06:04.671Z,89.42
2017-10-17T22:08:33.054Z,90.32
2017-10-17T22:11:01.445Z,91.75
2017-10-17T22:13:29.823Z,92.26
2017-10-17T22:15:58.197Z,91.37
2017-10-17T22:18:26.561Z,91.81
2017-10-17T22:20:54.933Z,91.73
2017-10-17T22:23:23.303Z,91.31
2017-10-17T22:25:51.671Z,91.50
2017-10-17T22:28:21.049Z,91.98
2017-10-17T22:30:49.433Z,92.16
2017-10-17T22:33:17.800Z,92.13
2017-10-17T22:35:46.200Z,93.11
2017-10-17T22:38:14.566Z,92.55
2017-10-17T22:40:42.934Z,92.59
2017-10-17T22:43:11.317Z,92.75
2017-10-17T22:45:40.541Z,92.61
2017-10-17T22:48:08.918Z,91.98
2017-10-17T22:50:37.285Z,91.97
2017-10-17T22:53:05.653Z,91.71
2017-10-17T22:55:34.030Z,92.88
2017-10-17T22:58:02.399Z,92.83
2017-10-17T23:00:30.786Z,93.14
2017-10-17T23:02:59.161Z,92.81
2017-10-17T23:05:27.541Z,93.67
2017-10-17T23:07:55.921Z,93.67
2017-10-17T23:10:24.324Z,94.27
2017-10-17T23:12:52.701Z,93.94
2017-10-17T23:15:21.072Z,93.63
2017-10-17T23:18:07.150Z,93.61
2017-10-17T23:20:38.379Z,93.30
2017-10-17T23:23:06.741Z,93.34
2017-10-17T23:25:35.110Z,93.66
2017-10-17T23:28:03.480Z,93.80
2017-10-17T23:30:31.837Z,93.42
2017-10-17T23:33:00.203Z,93.23
2017-10-17T23:35:28.576Z,93.30
2017-10-17T23:37:56.935Z,93.24
2017-10-17T23:40:25.304Z,93.14
2017-10-17T23:42:53.688Z,92.97
2017-10-17T23:45:22.078Z,92.55
2017-10-17T23:47:50.471Z,92.80
2017-10-17T23:50:18.841Z,92.94
2017-10-17T23:52:47.217Z,93.84
2017-10-17T23:55:15.612Z,93.19
2017-10-17T23:57:43.990Z,93.06
